Latest Weather Observations for Roxby Downs

IDS60801

Issued at 2:31 pm CST Tuesday 25 July 2017 (issued every 30 minutes, with the page automatically refreshed every 10 minutes)

About weather observations | Map of weather stations | Latest weather observations for SA | Other Formats
Station Details ID: 016096 Name: OLYMPIC DAM AERODROME Lat: -30.48 Lon: 136.88 Height: 98.5 m
Data from the previous 72 hours. | See also: Recent months at Roxby Downs
Date/Time
CST
Temp
°C
App
Temp
°C
Dew
Point
°C
Rel
Hum
%
Delta-T
°C
Wind Press
QNH
hPa
Press
MSL
hPa
Rain since
9am
mm
Dir  Spd
km/h
Gust
km/h
Spd
kts
Gust
kts
25/02:30pm 26.9 19.5 -3.8 13 13.4 NW 26 37 14 20 1017.9 1018.0 0.0
25/02:00pm 25.2 18.7 -2.4 16 12.2 NW 22 30 12 16 1018.4 1018.5 0.0
25/01:30pm 24.7 18.2 -2.8 16 12.0 NW 22 33 12 18 1018.8 1018.9 0.0
25/01:00pm 24.3 17.4 -2.3 17 11.7 NW 24 35 13 19 1019.2 1019.3 0.0
25/12:30pm 25.4 18.1 -3.1 15 12.4 NNW 26 39 14 21 1019.8 1019.9 0.0
25/12:00pm 24.9 17.2 -2.6 16 12.1 NNW 28 39 15 21 1020.5 1020.6 0.0
25/11:30am 24.3 16.6 -3.1 16 11.8 NNW 28 39 15 21 1021.0 1021.1 0.0
25/11:00am 23.4 16.5 -3.0 17 11.4 NNW 24 33 13 18 1021.4 1021.5 0.0
25/10:30am 22.4 15.2 -2.3 19 10.7 NW 26 35 14 19 1021.7 1021.8 0.0
25/10:00am 21.1 15.0 -2.0 21 9.9 NNW 20 32 11 17 1021.6 1021.7 0.0
25/09:30am 19.0 13.3 -0.9 26 8.6 N 19 22 10 12 1021.4 1021.5 0.0
25/09:00am 16.9 12.3 -0.8 30 7.5 N 13 17 7 9 1021.2 1021.3 0.0
25/08:30am 14.9 11.1 -0.4 35 6.4 N 9 13 5 7 1021.1 1021.2 0.0
25/08:00am 13.4 9.6 -0.6 38 5.8 NNE 9 13 5 7 1020.7 1020.8 0.0
25/07:30am 11.2 6.7 -0.3 45 4.7 NNE 13 15 7 8 1020.1 1020.2 0.0
25/07:00am 10.3 5.8 -0.2 48 4.2 NNE 13 15 7 8 1020.0 1020.1 0.0
25/06:30am 9.2 5.4 -0.7 50 3.9 NNE 9 13 5 7 1019.8 1019.9 0.0
25/06:00am 9.5 5.7 -0.4 50 3.9 NNE 9 11 5 6 1019.6 1019.7 0.0
25/05:30am 8.6 4.8 -0.7 52 3.6 NNE 9 11 5 6 1019.5 1019.6 0.0
25/05:00am 9.8 6.0 -0.7 48 4.2 N 9 13 5 7 1019.5 1019.6 0.0
25/04:30am 10.6 6.5 -0.5 46 4.4 N 11 11 6 6 1019.4 1019.5 0.0
25/04:00am 11.6 7.5 -0.5 43 4.9 NNE 11 13 6 7 1019.3 1019.4 0.0
25/03:30am 12.6 8.8 -0.6 40 5.4 N 9 13 5 7 1019.4 1019.5 0.0
25/03:00am 14.0 10.2 -0.4 37 6.0 N 9 13 5 7 1019.5 1019.6 0.0
25/02:30am 14.8 10.3 -0.1 36 6.3 NNW 13 19 7 10 1019.5 1019.6 0.0
25/02:00am 15.3 10.1 -0.1 35 6.5 NNW 17 24 9 13 1019.4 1019.5 0.0
25/01:30am 14.2 9.8 0.5 39 5.8 N 13 17 7 9 1019.5 1019.6 0.0
25/01:00am 14.0 9.5 -0.1 38 5.9 W 13 19 7 10 1019.7 1019.8 0.0
25/12:30am 15.9 10.8 0.5 35 6.6 N 17 22 9 12 1019.2 1019.3 0.0
25/12:00am 15.7 10.6 0.7 36 6.5 N 17 24 9 13 1019.2 1019.3 0.0
 
Date/Time
CST
Temp
°C
App
Temp
°C
Dew
Point
°C
Rel
Hum
%
Delta-T
°C
Wind Press
QNH
hPa
Press
MSL
hPa
Rain since
9am
mm
Dir  Spd
km/h
Gust
km/h
Spd
kts
Gust
kts
24/11:30pm 14.2 9.5 1.2 41 5.6 N 15 17 8 9 1019.2 1019.3 0.0
24/11:00pm 14.4 10.1 1.0 40 5.8 N 13 17 7 9 1019.2 1019.3 0.0
24/10:30pm 15.1 10.5 1.3 39 6.0 NNE 15 20 8 11 1019.1 1019.2 0.0
24/10:00pm 15.1 10.4 0.9 38 6.1 NNE 15 17 8 9 1019.3 1019.4 0.0
24/09:30pm 15.5 10.8 0.9 37 6.3 NNE 15 19 8 10 1019.2 1019.3 0.0
24/09:00pm 16.0 11.3 1.0 36 6.5 NNE 15 19 8 10 1019.2 1019.3 0.0
24/08:30pm 16.5 11.9 1.4 36 6.7 NNE 15 17 8 9 1019.2 1019.3 0.0
24/08:00pm 16.6 12.4 1.5 36 6.7 NNE 13 15 7 8 1019.3 1019.4 0.0
24/07:30pm 16.6 12.4 1.5 36 6.7 NE 13 15 7 8 1019.3 1019.4 0.0
24/07:00pm 17.5 13.5 0.2 31 7.5 NE 11 11 6 6 1019.2 1019.3 0.0
24/06:30pm 20.1 15.7 0.5 27 8.8 N 13 19 7 10 1019.1 1019.2 0.0
24/06:00pm 20.9 15.8 0.7 26 9.1 N 17 24 9 13 1018.8 1018.9 0.0
24/05:30pm 22.2 16.5 0.7 24 9.8 N 20 32 11 17 1018.7 1018.8 0.0
24/05:00pm 22.9 16.3 1.9 25 9.9 N 26 37 14 20 1018.4 1018.5 0.0
24/04:30pm 22.8 15.0 1.8 25 9.9 N 32 41 17 22 1018.0 1018.1 0.0
24/04:00pm 23.6 16.2 1.9 24 10.3 N 30 43 16 23 1018.0 1018.1 0.0
24/03:30pm 23.8 16.3 1.4 23 10.5 N 30 39 16 21 1018.4 1018.5 0.0
24/03:00pm 23.7 16.2 1.4 23 10.5 N 30 39 16 21 1018.7 1018.8 0.0
24/02:30pm 23.9 17.0 2.7 25 10.2 N 28 39 15 21 1019.0 1019.1 0.0
24/02:00pm 23.8 17.7 2.6 25 10.2 NNE 24 33 13 18 1019.5 1019.6 0.0
24/01:30pm 22.7 16.2 2.8 27 9.5 N 26 37 14 20 1020.1 1020.2 0.0
24/01:00pm 22.0 16.0 3.2 29 9.0 NNE 24 33 13 18 1020.5 1020.6 0.0
24/12:30pm 21.2 15.5 3.0 30 8.6 NNE 22 32 12 17 1021.2 1021.3 0.0
24/12:00pm 21.3 15.7 3.5 31 8.5 NE 22 30 12 16 1022.0 1022.1 0.0
24/11:30am 19.9 14.4 4.0 35 7.6 NNE 22 32 12 17 1022.3 1022.4 0.0
24/11:00am 19.2 14.4 4.6 38 7.1 NNE 19 26 10 14 1022.9 1023.0 0.0
24/10:30am 17.9 12.9 4.8 42 6.3 NE 20 30 11 16 1023.2 1023.3 0.0
24/10:00am 16.9 12.6 5.2 46 5.6 NE 17 26 9 14 1023.7 1023.8 0.0
24/09:30am 14.2 10.7 5.6 56 4.1 NE 13 20 7 11 1023.5 1023.6 0.0
24/09:00am 12.4 9.6 5.3 62 3.3 NNE 9 13 5 7 1023.2 1023.3 0.0
24/08:30am 10.4 7.5 4.8 68 2.5 NNE 9 9 5 5 1022.9 1023.0 0.0
24/08:00am 8.3 5.4 4.5 77 1.7 NE 9 11 5 6 1022.5 1022.6 0.0
24/07:30am 5.0 1.5 1.3 77 1.5 ENE 9 9 5 5 1022.3 1022.4 0.0
24/07:00am 5.6 2.4 2.8 82 1.2 NE 9 11 5 6 1022.0 1022.1 0.0
24/06:30am 6.5 4.0 3.5 81 1.3 NNE 6 9 3 5 1021.6 1021.7 0.0
24/06:00am 6.9 3.4 3.7 80 1.4 ENE 11 13 6 7 1021.0 1021.1 0.0
24/05:30am 6.2 2.7 3.4 82 1.2 NE 11 13 6 7 1021.0 1021.1 0.0
24/05:00am 4.3 2.2 1.5 82 1.1 ESE 2 11 1 6 1020.7 1020.8 0.0
24/04:30am 3.8 1.9 0.5 79 1.3 CALM 0 0 0 0 1020.5 1020.6 0.0
24/04:00am 4.0 0.8 -0.8 71 1.8 SE 6 7 3 4 1020.4 1020.5 0.0
24/03:30am 4.8 3.2 2.3 84 1.0 CALM 0 0 0 0 1020.6 1020.7 0.0
24/03:00am 4.8 1.8 0.9 76 1.5 ENE 6 7 3 4 1020.6 1020.7 0.0
24/02:30am 5.9 3.2 2.4 78 1.4 ENE 6 9 3 5 1020.9 1021.0 0.0
24/02:00am 7.0 3.8 3.1 76 1.6 NE 9 11 5 6 1021.1 1021.2 0.0
24/01:30am 7.9 5.0 4.5 79 1.5 ENE 9 13 5 7 1021.2 1021.3 0.0
24/01:00am 5.7 2.4 2.7 81 1.2 SSE 9 9 5 5 1021.1 1021.2 0.0
24/12:30am 5.1 2.8 0.7 73 1.7 SE 2 9 1 5 1021.2 1021.3 0.0
24/12:00am 5.3 2.8 -0.7 65 2.3 E 2 6 1 3 1021.4 1021.5 0.0
 
Date/Time
CST
Temp
°C
App
Temp
°C
Dew
Point
°C
Rel
Hum
%
Delta-T
°C
Wind Press
QNH
hPa
Press
MSL
hPa
Rain since
9am
mm
Dir  Spd
km/h
Gust
km/h
Spd
kts
Gust
kts
23/11:30pm 5.5 1.7 -1.0 63 2.4 SE 9 11 5 6 1021.4 1021.5 0.0
23/11:00pm 7.0 4.3 2.9 75 1.7 SE 6 9 3 5 1021.8 1021.9 0.0
23/10:30pm 6.5 3.0 -1.4 57 3.0 SSE 7 9 4 5 1022.1 1022.2 0.0
23/10:00pm 7.0 3.4 0.5 63 2.6 SSE 9 9 5 5 1022.2 1022.3 0.0
23/09:30pm 7.6 3.8 -0.6 56 3.2 SE 9 11 5 6 1022.1 1022.2 0.0
23/09:00pm 8.7 5.4 0.2 55 3.4 SE 7 7 4 4 1021.9 1022.0 0.0
23/08:30pm 10.3 7.6 2.7 59 3.3 SSE 6 9 3 5 1021.7 1021.8 0.0
23/08:00pm 12.1 8.8 2.6 52 4.2 S 9 9 5 5 1021.5 1021.6 0.0
23/07:30pm 13.8 11.0 3.3 49 4.7 SSW 7 11 4 6 1021.3 1021.4 0.0
23/07:00pm 14.4 11.2 3.2 47 5.1 SSW 9 11 5 6 1020.8 1020.9 0.0
23/06:30pm 15.4 12.2 3.2 44 5.5 SSW 9 11 5 6 1020.3 1020.4 0.0
23/06:00pm 17.4 14.2 3.3 39 6.5 SSW 9 11 5 6 1019.7 1019.8 0.0
23/05:30pm 19.7 15.9 3.8 35 7.6 S 13 17 7 9 1019.3 1019.4 0.0
23/05:00pm 21.1 17.6 3.3 31 8.5 SW 11 15 6 8 1019.1 1019.2 0.0
23/04:30pm 21.5 17.6 3.2 30 8.7 SSW 13 20 7 11 1018.9 1019.0 0.0
23/04:00pm 21.8 17.2 3.5 30 8.8 SSW 17 26 9 14 1018.8 1018.9 0.0
23/03:30pm 21.9 17.6 3.1 29 9.0 SSW 15 26 8 14 1018.9 1019.0 0.0
23/03:00pm 22.6 18.3 3.2 28 9.3 SSW 15 24 8 13 1019.0 1019.1 0.0
23/02:30pm 21.9 17.2 3.1 29 9.0 SSW 17 26 9 14 1019.3 1019.4 0.0
23/02:00pm 22.1 17.2 2.2 27 9.4 SW 17 32 9 17 1019.6 1019.7 0.0
23/01:30pm 22.1 17.0 3.3 29 9.0 WSW 19 28 10 15 1019.9 1020.0 0.0
23/01:00pm 21.2 17.3 3.4 31 8.5 SW 13 24 7 13 1020.3 1020.4 0.0
23/12:30pm 21.0 17.2 3.7 32 8.3 SSW 13 20 7 11 1020.8 1020.9 0.0
23/12:00pm 20.4 16.2 3.6 33 8.0 SSW 15 20 8 11 1021.2 1021.3 0.0
23/11:30am 19.9 16.4 3.6 34 7.7 SSW 11 17 6 9 1021.8 1021.9 0.0
23/11:00am 19.5 15.6 3.2 34 7.7 SSW 13 17 7 9 1022.0 1022.1 0.0
23/10:30am 18.5 15.8 2.8 35 7.3 SSE 6 11 3 6 1022.1 1022.2 0.0
23/10:00am 17.2 14.6 3.1 39 6.5 S 6 7 3 4 1022.0 1022.1 0.0
23/09:30am 15.0 12.0 2.2 42 5.7 SSW 7 9 4 5 1021.7 1021.8 0.0
23/09:00am 12.7 9.7 0.8 44 5.0 S 6 9 3 5 1021.1 1021.2 0.0
23/08:30am 9.3 7.2 -0.6 50 3.9 CALM 0 0 0 0 1020.7 1020.8 0.0
23/08:00am 5.9 3.7 -1.3 60 2.7 CALM 0 6 0 3 1020.3 1020.4 0.0
23/07:30am 3.3 -0.4 -2.6 65 2.1 SSW 7 9 4 5 1020.3 1020.4 0.0
23/07:00am 3.0 -1.0 -2.5 67 1.9 WSW 9 11 5 6 1020.4 1020.5 0.0
23/06:30am 2.8 0.3 -4.0 61 2.3 CALM 0 0 0 0 1020.0 1020.1 0.0
23/06:00am 3.0 0.5 -3.6 62 2.2 CALM 0 0 0 0 1019.9 1020.0 0.0
23/05:30am 3.3 0.8 -3.9 59 2.4 CALM 0 0 0 0 1019.3 1019.4 0.0
23/05:00am 3.7 1.3 -3.3 60 2.4 CALM 0 0 0 0 1019.0 1019.1 0.0
23/04:30am 4.6 2.3 -2.3 61 2.5 CALM 0 0 0 0 1018.8 1018.9 0.0
23/04:00am 4.7 2.3 -3.1 57 2.7 CALM 0 0 0 0 1018.9 1019.0 0.0
23/03:30am 5.6 2.0 -2.0 58 2.8 SSE 7 7 4 4 1018.6 1018.7 0.0
23/03:00am 6.5 3.9 -1.4 57 3.0 SW 2 9 1 5 1018.6 1018.7 0.0
23/02:30am 6.8 3.8 -2.1 53 3.3 NW 4 7 2 4 1018.5 1018.6 0.0
23/02:00am 7.8 4.2 -2.2 49 3.7 W 7 7 4 4 1018.4 1018.5 0.0
23/01:30am 9.2 7.0 -1.8 46 4.2 CALM 0 0 0 0 1018.6 1018.7 0.0
23/01:00am 12.8 9.4 -0.8 39 5.6 W 7 17 4 9 1018.5 1018.6 0.0
23/12:30am 14.0 8.7 -0.8 36 6.1 WNW 17 26 9 14 1018.4 1018.5 0.0
23/12:00am 14.9 9.0 -0.8 34 6.5 N 20 26 11 14 1017.4 1017.5 0.0
 
Date/Time
CST
Temp
°C
App
Temp
°C
Dew
Point
°C
Rel
Hum
%
Delta-T
°C
Wind Press
QNH
hPa
Press
MSL
hPa
Rain since
9am
mm
Dir  Spd
km/h
Gust
km/h
Spd
kts
Gust
kts
22/11:30pm 15.3 9.1 -0.4 34 6.6 N 22 33 12 18 1017.5 1017.6 0.0
22/11:00pm 15.0 9.1 -0.7 34 6.6 N 20 30 11 16 1017.6 1017.7 0.0
22/10:30pm 14.9 9.0 -0.8 34 6.5 N 20 26 11 14 1017.5 1017.6 0.0
22/10:00pm 14.9 9.2 -0.8 34 6.5 N 19 26 10 14 1017.5 1017.6 0.0
22/09:30pm 15.0 9.1 -0.7 34 6.5 NNE 20 26 11 14 1017.4 1017.5 0.0
22/09:00pm 15.4 9.7 -0.8 33 6.8 NNE 19 26 10 14 1017.5 1017.6 0.0
22/08:30pm 15.4 9.7 -0.8 33 6.8 NNE 19 26 10 14 1017.4 1017.5 0.0
22/08:00pm 16.1 10.4 -0.6 32 7.1 NNE 19 24 10 13 1017.2 1017.2 0.0
22/07:30pm 16.6 11.3 -0.6 31 7.3 NNE 17 20 9 11 1017.3 1017.3 0.0
22/07:00pm 17.3 12.0 -0.4 30 7.6 NNE 17 20 9 11 1017.0 1017.0 0.0
22/06:30pm 17.8 12.9 -0.5 29 7.9 NNE 15 19 8 10 1016.9 1016.9 0.0
22/06:00pm 19.0 14.4 -0.9 26 8.6 NNE 13 17 7 9 1016.6 1016.6 0.0
22/05:30pm 21.1 16.2 -0.8 23 9.6 N 15 20 8 11 1016.3 1016.3 0.0
22/05:00pm 22.3 16.4 -1.1 21 10.4 N 20 28 11 15 1016.1 1016.1 0.0
22/04:30pm 22.7 16.4 -0.7 21 10.5 N 22 35 12 19 1016.1 1016.1 0.0
22/04:00pm 22.6 15.6 -0.8 21 10.4 N 26 35 14 19 1015.7 1015.8 0.0
22/03:30pm 22.9 15.8 -1.2 20 10.7 N 26 37 14 20 1015.8 1015.9 0.0
22/03:00pm 22.9 16.6 -1.2 20 10.7 NNW 22 35 12 19 1016.6 1016.6 0.0

Other Formats:

Comma delimited format used in spreadsheet applications
http://www.bom.gov.au/fwo/IDS60801/IDS60801.95658.axf

JavaScript Object Notation format (JSON) in row-major order
http://www.bom.gov.au/fwo/IDS60801/IDS60801.95658.json